sensor_id;sensor_type;location;lat;lon;timestamp;pressure;altitude;pressure_sealevel;temperature;humidity
78615;BME280;67937;52.488;20.952;2024-03-06T00:01:55;100962.79;;;5.60;96.97
78615;BME280;67937;52.488;20.952;2024-03-06T00:04:23;100965.19;;;5.61;96.96
78615;BME280;67937;52.488;20.952;2024-03-06T00:06:51;100965.52;;;5.61;97.09
78615;BME280;67937;52.488;20.952;2024-03-06T00:09:21;100967.08;;;5.61;97.12
78615;BME280;67937;52.488;20.952;2024-03-06T00:11:49;100967.94;;;5.62;97.00
78615;BME280;67937;52.488;20.952;2024-03-06T00:14:19;100973.99;;;5.63;97.09
78615;BME280;67937;52.488;20.952;2024-03-06T00:16:48;100968.52;;;5.64;97.13
78615;BME280;67937;52.488;20.952;2024-03-06T00:19:18;100968.22;;;5.63;97.18
78615;BME280;67937;52.488;20.952;2024-03-06T00:22:13;100969.86;;;5.62;97.24
78615;BME280;67937;52.488;20.952;2024-03-06T00:25:08;100974.28;;;5.64;97.34
78615;BME280;67937;52.488;20.952;2024-03-06T00:27:47;100973.42;;;5.64;97.40
78615;BME280;67937;52.488;20.952;2024-03-06T00:30:27;100976.84;;;5.66;97.43
78615;BME280;67937;52.488;20.952;2024-03-06T00:33:23;100973.70;;;5.62;97.42
78615;BME280;67937;52.488;20.952;2024-03-06T00:36:01;100978.42;;;5.65;97.52
78615;BME280;67937;52.488;20.952;2024-03-06T00:38:33;100981.38;;;5.66;97.45
78615;BME280;67937;52.488;20.952;2024-03-06T00:41:13;100980.29;;;5.67;97.55
78615;BME280;67937;52.488;20.952;2024-03-06T00:44:09;100972.66;;;5.62;97.73
78615;BME280;67937;52.488;20.952;2024-03-06T00:47:00;100986.84;;;5.69;97.54
78615;BME280;67937;52.488;20.952;2024-03-06T00:49:56;100985.95;;;5.69;97.78
78615;BME280;67937;52.488;20.952;2024-03-06T00:52:53;100989.95;;;5.70;97.80
78615;BME280;67937;52.488;20.952;2024-03-06T00:55:23;100981.76;;;5.65;97.82
78615;BME280;67937;52.488;20.952;2024-03-06T00:57:51;100993.73;;;5.71;97.86
78615;BME280;67937;52.488;20.952;2024-03-06T01:00:19;100992.84;;;5.71;97.98
78615;BME280;67937;52.488;20.952;2024-03-06T01:02:49;100994.25;;;5.71;98.03
78615;BME280;67937;52.488;20.952;2024-03-06T01:05:17;100992.82;;;5.72;98.07
78615;BME280;67937;52.488;20.952;2024-03-06T01:08:13;100995.61;;;5.72;97.93
78615;BME280;67937;52.488;20.952;2024-03-06T01:10:48;100998.73;;;5.73;97.92
78615;BME280;67937;52.488;20.952;2024-03-06T01:13:37;100992.73;;;5.66;98.20
78615;BME280;67937;52.488;20.952;2024-03-06T01:16:41;101003.13;;;5.72;98.06
78615;BME280;67937;52.488;20.952;2024-03-06T01:19:09;101007.66;;;5.73;98.34
78615;BME280;67937;52.488;20.952;2024-03-06T01:21:53;101005.58;;;5.72;98.05
78615;BME280;67937;52.488;20.952;2024-03-06T01:24:55;101007.61;;;5.70;98.17
78615;BME280;67937;52.488;20.952;2024-03-06T01:27:58;100997.80;;;5.63;98.18
78615;BME280;67937;52.488;20.952;2024-03-06T01:30:55;101014.76;;;5.71;98.20
78615;BME280;67937;52.488;20.952;2024-03-06T01:33:59;101017.05;;;5.70;98.10
78615;BME280;67937;52.488;20.952;2024-03-06T01:37:24;101015.86;;;5.70;98.25
78615;BME280;67937;52.488;20.952;2024-03-06T01:40:27;101007.23;;;5.63;98.25
78615;BME280;67937;52.488;20.952;2024-03-06T01:43:36;101018.80;;;5.70;98.28
78615;BME280;67937;52.488;20.952;2024-03-06T01:46:38;101024.45;;;5.69;98.48
78615;BME280;67937;52.488;20.952;2024-03-06T01:49:35;101025.33;;;5.70;98.24
78615;BME280;67937;52.488;20.952;2024-03-06T01:52:36;101023.52;;;5.67;98.29
78615;BME280;67937;52.488;20.952;2024-03-06T01:55:49;101028.55;;;5.68;98.43
78615;BME280;67937;52.488;20.952;2024-03-06T01:58:50;101026.89;;;5.66;98.48
78615;BME280;67937;52.488;20.952;2024-03-06T02:01:46;101029.07;;;5.65;98.35
78615;BME280;67937;52.488;20.952;2024-03-06T02:04:42;101030.35;;;5.64;98.35
78615;BME280;67937;52.488;20.952;2024-03-06T02:07:38;101028.88;;;5.61;98.39
78615;BME280;67937;52.488;20.952;2024-03-06T02:10:44;101034.75;;;5.63;98.35
78615;BME280;67937;52.488;20.952;2024-03-06T02:13:44;101032.72;;;5.61;98.41
78615;BME280;67937;52.488;20.952;2024-03-06T02:16:55;101036.16;;;5.59;98.51
78615;BME280;67937;52.488;20.952;2024-03-06T02:20:12;101034.99;;;5.58;98.52
78615;BME280;67937;52.488;20.952;2024-03-06T02:23:13;101034.91;;;5.56;98.47
78615;BME280;67937;52.488;20.952;2024-03-06T02:25:42;101035.95;;;5.56;98.27
78615;BME280;67937;52.488;20.952;2024-03-06T02:28:10;101029.64;;;5.49;98.29
78615;BME280;67937;52.488;20.952;2024-03-06T02:30:39;101028.54;;;5.50;98.34
78615;BME280;67937;52.488;20.952;2024-03-06T02:33:07;101036.15;;;5.52;98.32
78615;BME280;67937;52.488;20.952;2024-03-06T02:35:36;101037.69;;;5.49;98.20
78615;BME280;67937;52.488;20.952;2024-03-06T02:38:44;101033.68;;;5.45;98.24
78615;BME280;67937;52.488;20.952;2024-03-06T02:41:57;101036.65;;;5.45;98.28
78615;BME280;67937;52.488;20.952;2024-03-06T02:45:22;101033.73;;;5.44;98.17
78615;BME280;67937;52.488;20.952;2024-03-06T02:48:35;101028.46;;;5.37;98.13
78615;BME280;67937;52.488;20.952;2024-03-06T02:51:51;101034.30;;;5.39;98.26
78615;BME280;67937;52.488;20.952;2024-03-06T02:55:17;101035.18;;;5.40;97.97
78615;BME280;67937;52.488;20.952;2024-03-06T02:59:09;101036.71;;;5.37;97.95
78615;BME280;67937;52.488;20.952;2024-03-06T03:06:15;101037.55;;;5.34;97.87
78615;BME280;67937;52.488;20.952;2024-03-06T03:09:27;101042.11;;;5.33;97.90
78615;BME280;67937;52.488;20.952;2024-03-06T03:12:30;101043.41;;;5.32;97.81
78615;BME280;67937;52.488;20.952;2024-03-06T03:15:42;101048.65;;;5.32;97.74
78615;BME280;67937;52.488;20.952;2024-03-06T03:19:23;101049.94;;;5.31;97.67
78615;BME280;67937;52.488;20.952;2024-03-06T03:22:41;101050.52;;;5.29;97.64
78615;BME280;67937;52.488;20.952;2024-03-06T03:25:25;101046.89;;;5.29;97.68
78615;BME280;67937;52.488;20.952;2024-03-06T03:27:53;101044.80;;;5.25;97.71
78615;BME280;67937;52.488;20.952;2024-03-06T03:30:21;101050.59;;;5.28;97.69
78615;BME280;67937;52.488;20.952;2024-03-06T03:32:49;101043.66;;;5.23;97.45
78615;BME280;67937;52.488;20.952;2024-03-06T03:35:19;101056.38;;;5.27;97.34
78615;BME280;67937;52.488;20.952;2024-03-06T03:37:51;101051.70;;;5.27;97.44
78615;BME280;67937;52.488;20.952;2024-03-06T03:40:20;101031.89;;;5.12;97.36
78615;BME280;67937;52.488;20.952;2024-03-06T03:42:49;101058.67;;;5.27;97.12
78615;BME280;67937;52.488;20.952;2024-03-06T03:45:17;101064.32;;;5.26;97.18
78615;BME280;67937;52.488;20.952;2024-03-06T03:47:46;101054.73;;;5.21;97.06
78615;BME280;67937;52.488;20.952;2024-03-06T03:50:15;101053.27;;;5.19;96.88
78615;BME280;67937;52.488;20.952;2024-03-06T03:52:43;101057.67;;;5.18;96.82
78615;BME280;67937;52.488;20.952;2024-03-06T03:55:11;101066.73;;;5.23;96.73
78615;BME280;67937;52.488;20.952;2024-03-06T03:57:39;101067.46;;;5.22;96.83
78615;BME280;67937;52.488;20.952;2024-03-06T04:00:08;101062.30;;;5.16;96.76
78615;BME280;67937;52.488;20.952;2024-03-06T04:02:37;101064.06;;;5.16;96.67
78615;BME280;67937;52.488;20.952;2024-03-06T04:05:06;101062.19;;;5.15;96.41
78615;BME280;67937;52.488;20.952;2024-03-06T04:07:35;101072.77;;;5.17;96.62
78615;BME280;67937;52.488;20.952;2024-03-06T04:10:04;101075.46;;;5.15;96.44
78615;BME280;67937;52.488;20.952;2024-03-06T04:12:32;101076.89;;;5.15;96.58
78615;BME280;67937;52.488;20.952;2024-03-06T04:15:01;101077.58;;;5.15;96.36
78615;BME280;67937;52.488;20.952;2024-03-06T04:17:29;101078.33;;;5.14;96.28
78615;BME280;67937;52.488;20.952;2024-03-06T04:19:57;101081.87;;;5.13;96.37
78615;BME280;67937;52.488;20.952;2024-03-06T04:22:26;101077.69;;;5.08;96.29
78615;BME280;67937;52.488;20.952;2024-03-06T04:24:55;101086.98;;;5.12;96.25
78615;BME280;67937;52.488;20.952;2024-03-06T04:27:25;101089.44;;;5.12;96.05
78615;BME280;67937;52.488;20.952;2024-03-06T04:29:53;101093.41;;;5.09;95.87
78615;BME280;67937;52.488;20.952;2024-03-06T04:32:25;101093.48;;;5.07;95.78
78615;BME280;67937;52.488;20.952;2024-03-06T04:35:11;101079.76;;;4.98;95.89
78615;BME280;67937;52.488;20.952;2024-03-06T04:38:04;101095.91;;;5.04;95.63
78615;BME280;67937;52.488;20.952;2024-03-06T04:40:48;101091.09;;;4.98;95.54
78615;BME280;67937;52.488;20.952;2024-03-06T04:43:21;101097.84;;;5.00;95.39
78615;BME280;67937;52.488;20.952;2024-03-06T04:46:03;101099.15;;;4.98;95.45
78615;BME280;67937;52.488;20.952;2024-03-06T04:49:07;101102.52;;;4.97;94.97
78615;BME280;67937;52.488;20.952;2024-03-06T04:51:44;101103.18;;;4.94;95.06
78615;BME280;67937;52.488;20.952;2024-03-06T04:54:18;101107.05;;;4.93;94.88
78615;BME280;67937;52.488;20.952;2024-03-06T04:57:14;101110.45;;;4.92;94.90
78615;BME280;67937;52.488;20.952;2024-03-06T05:00:13;101111.53;;;4.91;94.78
78615;BME280;67937;52.488;20.952;2024-03-06T05:02:55;101112.92;;;4.91;94.65
78615;BME280;67937;52.488;20.952;2024-03-06T05:05:31;101114.33;;;4.91;94.43
78615;BME280;67937;52.488;20.952;2024-03-06T05:08:20;101115.05;;;4.91;94.26
78615;BME280;67937;52.488;20.952;2024-03-06T05:10:49;101112.39;;;4.91;94.27
78615;BME280;67937;52.488;20.952;2024-03-06T05:13:17;101115.09;;;4.90;94.11
78615;BME280;67937;52.488;20.952;2024-03-06T05:15:45;101115.36;;;4.88;94.16
78615;BME280;67937;52.488;20.952;2024-03-06T05:18:13;101118.30;;;4.88;93.83
78615;BME280;67937;52.488;20.952;2024-03-06T05:20:41;101118.73;;;4.87;93.79
78615;BME280;67937;52.488;20.952;2024-03-06T05:23:10;101123.45;;;4.86;93.74
78615;BME280;67937;52.488;20.952;2024-03-06T05:25:39;101126.85;;;4.85;93.65
78615;BME280;67937;52.488;20.952;2024-03-06T05:28:07;101127.04;;;4.85;93.51
78615;BME280;67937;52.488;20.952;2024-03-06T05:30:35;101134.96;;;4.83;93.35
78615;BME280;67937;52.488;20.952;2024-03-06T05:33:03;101133.63;;;4.82;93.28
78615;BME280;67937;52.488;20.952;2024-03-06T05:35:32;101136.02;;;4.79;93.23
78615;BME280;67937;52.488;20.952;2024-03-06T05:38:01;101143.13;;;4.80;93.18
78615;BME280;67937;52.488;20.952;2024-03-06T05:40:33;101144.14;;;4.81;93.20
78615;BME280;67937;52.488;20.952;2024-03-06T05:43:09;101145.10;;;4.79;93.11
78615;BME280;67937;52.488;20.952;2024-03-06T05:45:37;101150.17;;;4.79;93.09
78615;BME280;67937;52.488;20.952;2024-03-06T05:48:08;101156.03;;;4.77;93.05
78615;BME280;67937;52.488;20.952;2024-03-06T05:50:36;101152.73;;;4.77;93.31
78615;BME280;67937;52.488;20.952;2024-03-06T05:53:05;101160.75;;;4.77;93.02
78615;BME280;67937;52.488;20.952;2024-03-06T05:55:34;101159.73;;;4.76;92.99
78615;BME280;67937;52.488;20.952;2024-03-06T05:58:06;101158.88;;;4.76;92.70
78615;BME280;67937;52.488;20.952;2024-03-06T06:00:35;101159.16;;;4.73;92.89
78615;BME280;67937;52.488;20.952;2024-03-06T06:03:15;101166.86;;;4.73;92.71
78615;BME280;67937;52.488;20.952;2024-03-06T06:05:44;101168.95;;;4.73;92.36
78615;BME280;67937;52.488;20.952;2024-03-06T06:08:13;101174.47;;;4.71;92.51
78615;BME280;67937;52.488;20.952;2024-03-06T06:10:46;101174.13;;;4.71;92.27
78615;BME280;67937;52.488;20.952;2024-03-06T06:13:14;101179.13;;;4.68;92.27
78615;BME280;67937;52.488;20.952;2024-03-06T06:15:42;101180.17;;;4.68;92.18
78615;BME280;67937;52.488;20.952;2024-03-06T06:18:11;101185.30;;;4.67;92.26
78615;BME280;67937;52.488;20.952;2024-03-06T06:20:41;101186.82;;;4.68;92.14
78615;BME280;67937;52.488;20.952;2024-03-06T06:23:09;101188.08;;;4.68;92.05
78615;BME280;67937;52.488;20.952;2024-03-06T06:25:38;101187.56;;;4.67;92.09
78615;BME280;67937;52.488;20.952;2024-03-06T06:28:06;101187.59;;;4.67;91.94
78615;BME280;67937;52.488;20.952;2024-03-06T06:30:38;101190.20;;;4.67;92.08
78615;BME280;67937;52.488;20.952;2024-03-06T06:33:07;101190.36;;;4.67;91.98
78615;BME280;67937;52.488;20.952;2024-03-06T06:35:36;101194.40;;;4.67;91.86
78615;BME280;67937;52.488;20.952;2024-03-06T06:38:06;101193.56;;;4.66;91.88
78615;BME280;67937;52.488;20.952;2024-03-06T06:40:36;101195.25;;;4.67;91.78
78615;BME280;67937;52.488;20.952;2024-03-06T06:43:05;101191.55;;;4.64;91.72
78615;BME280;67937;52.488;20.952;2024-03-06T06:45:36;101201.20;;;4.67;91.51
78615;BME280;67937;52.488;20.952;2024-03-06T06:48:07;101204.34;;;4.67;91.60
78615;BME280;67937;52.488;20.952;2024-03-06T06:50:36;101206.80;;;4.67;91.45
78615;BME280;67937;52.488;20.952;2024-03-06T06:53:09;101210.34;;;4.66;91.09
78615;BME280;67937;52.488;20.952;2024-03-06T06:55:38;101211.29;;;4.64;91.21
78615;BME280;67937;52.488;20.952;2024-03-06T06:58:07;101216.83;;;4.65;90.99
78615;BME280;67937;52.488;20.952;2024-03-06T07:00:37;101220.66;;;4.66;90.92
78615;BME280;67937;52.488;20.952;2024-03-06T07:03:05;101222.42;;;4.65;90.88
78615;BME280;67937;52.488;20.952;2024-03-06T07:05:34;101225.91;;;4.65;90.69
78615;BME280;67937;52.488;20.952;2024-03-06T07:08:02;101227.46;;;4.66;90.52
78615;BME280;67937;52.488;20.952;2024-03-06T07:10:30;101225.85;;;4.67;90.27
78615;BME280;67937;52.488;20.952;2024-03-06T07:12:59;101228.60;;;4.69;90.19
78615;BME280;67937;52.488;20.952;2024-03-06T07:15:27;101232.73;;;4.70;89.82
78615;BME280;67937;52.488;20.952;2024-03-06T07:17:57;101226.86;;;4.68;89.81
78615;BME280;67937;52.488;20.952;2024-03-06T07:20:25;101232.42;;;4.73;89.69
78615;BME280;67937;52.488;20.952;2024-03-06T07:22:54;101237.95;;;4.75;89.58
78615;BME280;67937;52.488;20.952;2024-03-06T07:25:22;101241.34;;;4.77;89.71
78615;BME280;67937;52.488;20.952;2024-03-06T07:27:50;101241.27;;;4.79;89.08
78615;BME280;67937;52.488;20.952;2024-03-06T07:30:19;101251.48;;;4.78;89.00
78615;BME280;67937;52.488;20.952;2024-03-06T07:32:47;101252.04;;;4.77;88.46
78615;BME280;67937;52.488;20.952;2024-03-06T07:35:16;101256.25;;;4.76;88.82
78615;BME280;67937;52.488;20.952;2024-03-06T07:37:45;101252.34;;;4.82;88.84
78615;BME280;67937;52.488;20.952;2024-03-06T07:40:14;101255.61;;;4.87;88.63
78615;BME280;67937;52.488;20.952;2024-03-06T07:42:42;101258.35;;;4.93;88.43
